Time;durP1;ratioP1;P1;durP2;ratioP2;P2;SDS_P1;SDS_P2;PMS_P1;PMS_P2;Temp;Humidity;BMP_temperature;BMP_pressure;BME280_temperature;BME280_humidity;BME280_pressure;Samples;Min_cycle;Max_cycle;Signal;HPM_P1;HPM_P2
2021/12/15 00:01:59;;;;;;;12.23;6.43;;;22.20;53.50;;;;;;5207968;28;20493;-61
2021/12/15 00:04:32;;;;;;;17.92;6.97;;;22.20;53.60;;;;;;5205424;28;20059;-61
2021/12/15 00:07:04;;;;;;;12.60;6.63;;;22.20;53.60;;;;;;5207991;28;20041;-61
2021/12/15 00:09:37;;;;;;;11.95;6.35;;;22.20;53.70;;;;;;5203933;28;20047;-61
2021/12/15 00:12:10;;;;;;;13.05;6.38;;;22.10;53.70;;;;;;5204266;28;20412;-60
2021/12/15 00:14:43;;;;;;;11.25;6.65;;;22.10;53.70;;;;;;5202948;28;20394;-61
2021/12/15 00:17:18;;;;;;;11.57;5.90;;;22.10;53.70;;;;;;5206319;28;20738;-61
2021/12/15 00:19:51;;;;;;;10.48;5.80;;;22.10;53.70;;;;;;5205554;28;20052;-61
2021/12/15 00:22:23;;;;;;;14.60;6.20;;;22.10;54.40;;;;;;5206886;28;20045;-61
2021/12/15 00:24:56;;;;;;;10.23;6.35;;;22.10;53.70;;;;;;5204708;28;20045;-61
2021/12/15 00:27:28;;;;;;;14.50;6.43;;;22.10;53.70;;;;;;5201252;28;20041;-61
2021/12/15 00:30:01;;;;;;;13.70;5.93;;;22.10;53.70;;;;;;5202145;28;20053;-61
2021/12/15 00:32:34;;;;;;;11.00;5.93;;;22.10;53.60;;;;;;5204604;28;20057;-61
2021/12/15 00:35:08;;;;;;;11.00;5.43;;;22.10;53.60;;;;;;5198961;28;20045;-60
2021/12/15 00:37:40;;;;;;;;;;;22.10;53.60;;;;;;5202841;28;20045;-60
2021/12/15 00:40:15;;;;;;;9.50;5.80;;;22.00;53.60;;;;;;5205841;28;19936;-61
2021/12/15 00:42:48;;;;;;;11.55;5.72;;;22.10;53.70;;;;;;5203094;28;20121;-61
2021/12/15 00:45:21;;;;;;;10.75;5.55;;;22.10;53.60;;;;;;5200899;28;20049;-61
2021/12/15 00:47:54;;;;;;;12.98;6.47;;;22.10;53.60;;;;;;5182127;28;20045;-59
2021/12/15 00:50:32;;;;;;;10.57;5.70;;;22.10;53.60;;;;;;5209087;28;20045;-59
2021/12/15 00:53:05;;;;;;;10.77;5.68;;;22.10;53.60;;;;;;5203924;28;20484;-62
2021/12/15 00:55:38;;;;;;;;;;;22.10;53.60;;;;;;5203260;28;20041;-60
2021/12/15 00:58:12;;;;;;;13.00;6.57;;;22.00;53.60;;;;;;5200984;28;19925;-61
2021/12/15 01:00:48;;;;;;;13.18;6.30;;;22.00;53.70;;;;;;5188186;28;20249;-61
2021/12/15 01:03:21;;;;;;;12.98;5.40;;;22.00;53.70;;;;;;5187733;28;20518;-62
2021/12/15 01:05:59;;;;;;;9.30;5.55;;;22.00;53.70;;;;;;5206943;28;20052;-61
2021/12/15 01:08:35;;;;;;;9.02;5.22;;;22.00;53.70;;;;;;5188486;28;20048;-60
2021/12/15 01:11:21;;;;;;;9.27;5.55;;;22.00;53.70;;;;;;5204370;28;20053;-61
2021/12/15 01:19:48;;;;;;;13.48;5.78;;;22.00;53.80;;;;;;5205613;28;20052;-59
2021/12/15 01:22:26;;;;;;;12.80;6.03;;;22.00;53.80;;;;;;5206543;28;20071;-61
2021/12/15 01:25:08;;;;;;;8.48;5.28;;;22.00;54.40;;;;;;5203141;28;20072;-61
2021/12/15 01:27:41;;;;;;;9.70;4.88;;;22.00;54.40;;;;;;5185541;28;20049;-60
2021/12/15 01:30:16;;;;;;;10.85;6.07;;;22.00;53.80;;;;;;5196115;28;20036;-61
2021/12/15 01:32:49;;;;;;;11.07;5.47;;;22.00;53.80;;;;;;5205083;28;20056;-61
2021/12/15 01:35:23;;;;;;;10.10;5.35;;;22.00;53.80;;;;;;5204564;28;20056;-61
2021/12/15 01:37:55;;;;;;;8.65;4.68;;;22.00;53.80;;;;;;5189985;28;20037;-60
2021/12/15 01:40:36;;;;;;;11.00;5.00;;;22.00;53.80;;;;;;5205969;28;20059;-61
2021/12/15 01:43:17;;;;;;;10.77;4.95;;;22.00;53.80;;;;;;5205896;28;20307;-61
2021/12/15 01:49:09;;;;;;;10.95;5.75;;;22.00;53.80;;;;;;5203101;28;20068;-61
2021/12/15 01:51:42;;;;;;;10.70;4.80;;;22.00;53.80;;;;;;5184969;28;20416;-61
2021/12/15 01:54:16;;;;;;;9.15;4.57;;;21.90;53.70;;;;;;5203616;28;20051;-58
2021/12/15 01:56:49;;;;;;;11.30;6.10;;;21.90;53.70;;;;;;5205538;28;20040;-61
2021/12/15 01:59:23;;;;;;;9.20;4.78;;;21.90;53.70;;;;;;5187800;28;20048;-61
2021/12/15 02:01:57;;;;;;;6.05;4.32;;;21.90;53.70;;;;;;5204950;28;20432;-61
2021/12/15 02:04:30;;;;;;;9.10;5.07;;;21.90;53.70;;;;;;5204954;28;20064;-61
2021/12/15 02:07:05;;;;;;;8.65;5.07;;;21.90;53.70;;;;;;5205420;28;20401;-62
2021/12/15 02:12:16;;;;;;;11.32;5.05;;;21.90;53.70;;;;;;5185393;28;20040;-61
2021/12/15 02:14:49;;;;;;;7.45;4.55;;;21.90;53.70;;;;;;5201447;28;20041;-61
2021/12/15 02:17:22;;;;;;;7.40;4.75;;;21.90;53.70;;;;;;5185794;28;22572;-61
2021/12/15 02:19:55;;;;;;;8.05;5.03;;;21.90;53.70;;;;;;5184028;28;20087;-62
2021/12/15 02:22:29;;;;;;;8.35;4.95;;;21.90;53.70;;;;;;5185768;28;20045;-61
2021/12/15 02:25:03;;;;;;;7.68;4.80;;;21.90;53.70;;;;;;5203519;28;20045;-61
2021/12/15 02:27:36;;;;;;;9.75;5.70;;;21.90;53.80;;;;;;5205226;28;20289;-62
2021/12/15 02:30:57;;;;;;;8.27;5.53;;;21.90;53.70;;;;;;5186041;28;20045;-61
2021/12/15 02:38:45;;;;;;;11.15;5.10;;;21.90;53.80;;;;;;5200791;28;20046;-61
2021/12/15 02:41:20;;;;;;;8.60;4.50;;;21.90;53.80;;;;;;5188644;28;20194;-60
2021/12/15 02:43:58;;;;;;;10.07;4.93;;;21.90;53.80;;;;;;5189608;28;20038;-61
2021/12/15 02:46:33;;;;;;;8.45;4.53;;;21.90;53.80;;;;;;5199168;28;20520;-61
2021/12/15 02:49:07;;;;;;;7.97;4.95;;;21.90;53.70;;;;;;5205792;28;20709;-62
2021/12/15 02:51:42;;;;;;;8.10;4.78;;;21.90;53.70;;;;;;5202177;28;20432;-61
2021/12/15 02:54:16;;;;;;;10.70;5.35;;;21.90;53.70;;;;;;5206179;28;20068;-61
2021/12/15 02:56:52;;;;;;;6.90;4.25;;;21.90;53.80;;;;;;5199784;28;20052;-61
2021/12/15 02:59:32;;;;;;;8.35;4.65;;;21.90;53.70;;;;;;5201938;28;20546;-62
2021/12/15 03:02:34;;;;;;;10.52;4.63;;;21.90;53.70;;;;;;5202740;28;20056;-61
2021/12/15 03:05:17;;;;;;;10.32;4.68;;;21.90;53.80;;;;;;5200058;28;20052;-61
2021/12/15 03:08:10;;;;;;;10.32;4.68;;;21.90;53.80;;;;;;5201403;28;20485;-62
2021/12/15 03:16:30;;;;;;;9.68;4.82;;;21.80;53.80;;;;;;5206966;28;20397;-61
2021/12/15 03:19:03;;;;;;;7.05;4.35;;;21.80;53.80;;;;;;5203284;28;20045;-62
2021/12/15 03:21:36;;;;;;;9.73;4.95;;;21.80;53.80;;;;;;5204875;28;20141;-61
2021/12/15 03:24:17;;;;;;;6.78;4.75;;;21.80;53.80;;;;;;5207773;28;20072;-61
2021/12/15 03:27:07;;;;;;;7.43;4.65;;;21.80;53.70;;;;;;5207495;28;21088;-60
2021/12/15 03:35:35;;;;;;;7.05;4.68;;;21.80;53.80;;;;;;5206762;28;20065;-60
2021/12/15 03:38:07;;;;;;;7.93;4.53;;;21.80;53.70;;;;;;5204905;28;20404;-61
2021/12/15 03:40:42;;;;;;;8.10;4.68;;;21.80;53.80;;;;;;5204659;28;20045;-60
2021/12/15 03:43:15;;;;;;;7.70;4.15;;;21.80;54.40;;;;;;5205072;28;20057;-61
2021/12/15 03:45:55;;;;;;;7.45;4.57;;;21.80;53.70;;;;;;5207133;28;20038;-60
2021/12/15 03:48:31;;;;;;;7.53;4.70;;;21.80;53.70;;;;;;5212091;28;20528;-61
2021/12/15 03:51:03;;;;;;;9.60;4.43;;;21.80;53.70;;;;;;5203871;28;20075;-61
2021/12/15 03:53:36;;;;;;;7.47;4.57;;;21.80;53.70;;;;;;5176473;28;20832;-61
2021/12/15 03:56:12;;;;;;;7.47;5.05;;;21.80;53.70;;;;;;5205392;28;20121;-61
2021/12/15 03:58:46;;;;;;;7.10;4.53;;;21.80;53.80;;;;;;5206932;28;20335;-59
2021/12/15 04:01:22;;;;;;;6.53;4.43;;;21.80;53.80;;;;;;5203870;28;20079;-61
2021/12/15 04:03:56;;;;;;;6.97;4.45;;;21.80;53.70;;;;;;5207309;28;20041;-60
2021/12/15 04:06:30;;;;;;;;;;;21.80;53.70;;;;;;5203970;28;20610;-61
2021/12/15 04:09:05;;;;;;;8.88;4.90;;;21.80;53.70;;;;;;5195782;28;19921;-60
2021/12/15 04:11:39;;;;;;;7.97;4.85;;;21.80;53.80;;;;;;5203281;28;20053;-61
2021/12/15 04:14:18;;;;;;;;;;;21.80;53.80;;;;;;5162207;28;20114;-59
2021/12/15 04:17:01;;;;;;;12.35;5.18;;;21.80;53.80;;;;;;5196944;28;19936;-62
2021/12/15 04:19:35;;;;;;;8.65;5.47;;;21.80;53.90;;;;;;5197473;28;20044;-61
2021/12/15 04:22:08;;;;;;;9.88;4.82;;;21.80;53.90;;;;;;5195722;28;20400;-63
2021/12/15 04:24:40;;;;;;;8.63;4.70;;;21.80;53.90;;;;;;5204270;28;20060;-61
2021/12/15 04:27:13;;;;;;;9.57;4.97;;;21.80;53.90;;;;;;5206700;28;20053;-62
2021/12/15 04:29:46;;;;;;;8.52;4.50;;;21.80;53.90;;;;;;5187880;28;20053;-60
2021/12/15 04:32:37;;;;;;;10.63;4.68;;;21.80;53.90;;;;;;5201845;28;20064;-60
2021/12/15 04:35:10;;;;;;;8.90;4.45;;;21.90;54.00;;;;;;5204291;28;20044;-61
2021/12/15 04:37:44;;;;;;;7.63;4.72;;;21.80;54.10;;;;;;5201864;28;20051;-61
2021/12/15 04:40:19;;;;;;;10.52;4.32;;;21.80;54.10;;;;;;5213617;22;20057;-54
2021/12/15 04:42:54;;;;;;;7.07;4.32;;;21.80;54.30;;;;;;5179504;28;20171;-54
2021/12/15 04:45:29;;;;;;;8.35;4.47;;;21.80;54.00;;;;;;5202039;28;20049;-55
2021/12/15 04:48:03;;;;;;;11.38;4.82;;;21.80;54.10;;;;;;5203830;28;20044;-56
2021/12/15 04:50:36;;;;;;;8.57;4.43;;;21.80;54.00;;;;;;5194320;28;20535;-55
2021/12/15 04:53:09;;;;;;;16.58;4.28;;;21.80;54.10;;;;;;5197081;28;20411;-54
2021/12/15 04:55:41;;;;;;;11.00;4.55;;;21.80;54.10;;;;;;5191772;28;20411;-56
2021/12/15 04:58:14;;;;;;;11.82;4.90;;;21.80;54.10;;;;;;5196880;28;20050;-53
2021/12/15 05:00:53;;;;;;;15.85;5.10;;;21.80;54.20;;;;;;5196977;28;20052;-52
2021/12/15 05:03:25;;;;;;;9.07;4.10;;;21.80;54.80;;;;;;5195629;28;20408;-54
2021/12/15 05:05:58;;;;;;;10.95;5.10;;;21.80;54.30;;;;;;5199610;28;20045;-51
2021/12/15 05:08:31;;;;;;;11.27;4.40;;;21.80;54.30;;;;;;5191208;28;20048;-54
2021/12/15 05:11:05;;;;;;;8.48;4.43;;;21.80;54.30;;;;;;5182693;28;20428;-54
2021/12/15 05:13:38;;;;;;;9.35;4.38;;;21.80;54.30;;;;;;5197229;28;20064;-52
2021/12/15 05:16:10;;;;;;;9.60;4.32;;;21.80;54.40;;;;;;5168303;28;20041;-56
2021/12/15 05:18:44;;;;;;;9.55;4.00;;;21.80;54.40;;;;;;5170516;28;20052;-52
2021/12/15 05:21:17;;;;;;;10.27;5.22;;;21.80;54.40;;;;;;5162050;28;20739;-52
2021/12/15 05:23:56;;;;;;;9.82;4.35;;;21.80;54.40;;;;;;5170298;28;20641;-50
2021/12/15 05:26:30;;;;;;;10.43;4.40;;;21.80;54.40;;;;;;5183028;28;20049;-53
2021/12/15 05:29:03;;;;;;;8.80;4.22;;;21.80;54.50;;;;;;5191588;28;20056;-54
2021/12/15 05:31:36;;;;;;;8.70;4.50;;;21.80;54.40;;;;;;5200778;28;20275;-52
2021/12/15 05:34:09;;;;;;;8.57;3.75;;;21.80;54.40;;;;;;5197010;28;20660;-50
2021/12/15 05:36:43;;;;;;;7.95;3.67;;;21.80;54.40;;;;;;5198594;28;20053;-53
2021/12/15 05:39:15;;;;;;;9.90;4.47;;;21.80;54.30;;;;;;5196463;28;20052;-54
2021/12/15 05:41:49;;;;;;;10.25;4.30;;;21.80;54.30;;;;;;5184046;28;20048;-50
2021/12/15 05:44:22;;;;;;;;;;;21.80;54.30;;;;;;5180323;28;20049;-53
2021/12/15 05:46:56;;;;;;;5.78;3.90;;;21.70;54.40;;;;;;5203648;28;19932;-52
2021/12/15 05:49:29;;;;;;;6.35;3.70;;;21.80;54.50;;;;;;5183204;28;20060;-52
2021/12/15 05:52:03;;;;;;;7.85;4.32;;;21.80;54.50;;;;;;5206267;28;20056;-56
2021/12/15 05:54:35;;;;;;;7.35;3.97;;;21.80;54.50;;;;;;5205439;28;20476;-54
2021/12/15 05:57:08;;;;;;;6.07;4.10;;;21.80;54.50;;;;;;5192169;28;20045;-57
2021/12/15 05:59:40;;;;;;;10.43;4.27;;;21.80;54.60;;;;;;5200682;28;20060;-55
2021/12/15 06:02:13;;;;;;;11.43;4.20;;;21.80;54.60;;;;;;5198928;28;20457;-55
2021/12/15 06:04:45;;;;;;;7.05;3.63;;;21.80;54.60;;;;;;5191308;28;20048;-52
2021/12/15 06:07:18;;;;;;;5.40;3.72;;;21.80;54.60;;;;;;5204557;28;20041;-53
2021/12/15 06:09:50;;;;;;;8.90;3.78;;;21.80;54.60;;;;;;5194814;28;20060;-55
2021/12/15 06:12:23;;;;;;;5.53;3.53;;;21.80;54.70;;;;;;5190484;28;20041;-56
2021/12/15 06:14:55;;;;;;;10.80;3.65;;;21.80;54.70;;;;;;5175776;28;20055;-55
2021/12/15 06:17:28;;;;;;;6.88;3.78;;;21.80;54.70;;;;;;5165558;28;21449;-53
2021/12/15 06:20:01;;;;;;;8.73;3.75;;;21.90;54.90;;;;;;5172485;28;20527;-55
2021/12/15 06:22:36;;;;;;;7.32;3.80;;;21.80;54.80;;;;;;5164797;28;20045;-57
2021/12/15 06:25:09;;;;;;;7.50;3.95;;;21.90;54.90;;;;;;5164387;28;20048;-57
2021/12/15 06:27:41;;;;;;;8.80;3.60;;;21.80;54.90;;;;;;5158056;28;21476;-57
2021/12/15 06:30:14;;;;;;;6.15;3.88;;;21.90;55.10;;;;;;5167447;28;20052;-57
2021/12/15 06:32:46;;;;;;;11.63;3.90;;;21.90;55.20;;;;;;5177711;28;20117;-55
2021/12/15 06:35:19;;;;;;;13.75;4.88;;;21.90;55.20;;;;;;5195280;28;20040;-52
2021/12/15 06:37:52;;;;;;;22.53;5.67;;;21.90;55.00;;;;;;5187829;28;20037;-56
2021/12/15 06:40:24;;;;;;;25.90;6.38;;;21.90;54.80;;;;;;5174810;28;20052;-56
2021/12/15 06:42:57;;;;;;;28.52;5.97;;;21.90;54.50;;;;;;5189613;28;20056;-55
2021/12/15 06:45:37;;;;;;;23.75;6.88;;;21.90;54.30;;;;;;5195946;28;21196;-55
2021/12/15 06:59:38;;;;;;;18.85;6.30;;;21.90;53.50;;;;;;5167385;28;26487;-56
2021/12/15 07:02:11;;;;;;;14.63;6.25;;;21.90;53.50;;;;;;5173722;28;20053;-57
2021/12/15 07:04:44;;;;;;;14.25;6.45;;;21.90;53.70;;;;;;5178085;28;20060;-57
2021/12/15 07:07:16;;;;;;;17.50;6.43;;;21.90;53.60;;;;;;5161153;28;20485;-58
2021/12/15 07:09:49;;;;;;;18.83;5.97;;;21.90;53.50;;;;;;5194648;28;20048;-52
2021/12/15 07:12:21;;;;;;;13.68;6.65;;;21.90;53.50;;;;;;5210441;28;20160;-56
2021/12/15 07:14:54;;;;;;;15.15;6.25;;;21.90;53.50;;;;;;5208224;28;20520;-55
2021/12/15 07:17:28;;;;;;;12.65;6.55;;;21.90;53.40;;;;;;5207368;28;20492;-57
2021/12/15 07:25:14;;;;;;;18.02;6.45;;;21.90;53.20;;;;;;5209638;28;20052;-55
2021/12/15 07:27:48;;;;;;;15.80;6.45;;;21.90;53.10;;;;;;5211955;28;20036;-56
2021/12/15 07:30:20;;;;;;;;;;;21.90;53.00;;;;;;5213311;28;20368;-51
2021/12/15 07:32:53;;;;;;;16.23;5.88;;;21.90;53.00;;;;;;5209885;28;19932;-58
2021/12/15 07:35:27;;;;;;;11.60;6.53;;;21.90;53.10;;;;;;5209250;28;20052;-54
2021/12/15 07:38:00;;;;;;;11.25;5.30;;;21.90;53.00;;;;;;5209551;28;20299;-53
2021/12/15 07:40:33;;;;;;;13.85;5.68;;;21.90;53.00;;;;;;5211900;28;20421;-53
2021/12/15 07:43:11;;;;;;;;;;;21.90;52.90;;;;;;5212614;28;20102;-56
2021/12/15 07:45:50;;;;;;;11.93;5.70;;;21.90;52.90;;;;;;5209584;28;19983;-56
2021/12/15 07:48:26;;;;;;;9.95;5.05;;;21.90;53.00;;;;;;5212262;28;20060;-54
2021/12/15 07:51:01;;;;;;;16.88;5.40;;;21.90;52.90;;;;;;5217963;28;20420;-53
2021/12/15 07:53:34;;;;;;;13.63;5.45;;;21.90;52.90;;;;;;5210418;28;20048;-57
2021/12/15 07:56:07;;;;;;;12.02;5.22;;;22.00;52.90;;;;;;5209106;28;20577;-56
2021/12/15 07:58:40;;;;;;;10.33;5.67;;;21.90;52.80;;;;;;5211101;28;20056;-57
2021/12/15 08:01:12;;;;;;;11.30;5.50;;;22.00;52.90;;;;;;5207651;28;20303;-52
2021/12/15 08:03:50;;;;;;;12.30;5.40;;;22.00;52.90;;;;;;5209517;28;20056;-51
2021/12/15 08:06:24;;;;;;;12.02;5.78;;;21.90;52.80;;;;;;5206899;28;20295;-54
2021/12/15 08:08:57;;;;;;;10.05;5.50;;;22.00;52.80;;;;;;5212361;28;20044;-57
2021/12/15 08:11:30;;;;;;;13.10;5.25;;;21.90;52.70;;;;;;5213778;28;20056;-56
2021/12/15 08:14:03;;;;;;;13.23;6.27;;;22.00;52.80;;;;;;5208131;28;20041;-57
2021/12/15 08:16:35;;;;;;;10.83;5.50;;;22.00;52.70;;;;;;5208770;28;20374;-53
2021/12/15 08:19:08;;;;;;;13.75;5.68;;;21.90;52.70;;;;;;5209580;28;20052;-57
2021/12/15 08:21:41;;;;;;;11.18;5.70;;;22.00;52.80;;;;;;5210668;28;20041;-54
2021/12/15 08:24:14;;;;;;;12.18;5.63;;;22.00;52.70;;;;;;5211401;28;20049;-56
2021/12/15 08:26:46;;;;;;;8.77;5.23;;;22.00;52.70;;;;;;5213988;28;20044;-56
2021/12/15 08:29:19;;;;;;;9.38;5.13;;;22.00;52.70;;;;;;5211601;28;20052;-55
2021/12/15 08:31:51;;;;;;;10.27;5.18;;;22.00;52.70;;;;;;5209016;28;21138;-55
2021/12/15 08:34:24;;;;;;;7.35;5.07;;;22.00;52.70;;;;;;5208482;28;20049;-54
2021/12/15 08:36:56;;;;;;;9.00;5.15;;;22.00;52.60;;;;;;5212156;28;20041;-56
2021/12/15 08:39:29;;;;;;;8.38;4.38;;;22.00;52.60;;;;;;5189013;28;20041;-57
2021/12/15 08:42:01;;;;;;;13.75;5.35;;;22.00;52.60;;;;;;5212364;28;20412;-58
2021/12/15 08:44:34;;;;;;;9.30;5.72;;;22.00;52.70;;;;;;5208683;28;20045;-56
2021/12/15 08:47:07;;;;;;;8.55;5.10;;;22.00;52.60;;;;;;5214040;28;20044;-57
2021/12/15 08:49:39;;;;;;;8.63;5.50;;;22.00;52.60;;;;;;5210141;28;20377;-57
2021/12/15 08:52:12;;;;;;;9.10;5.20;;;22.00;52.60;;;;;;5212636;28;20535;-55
2021/12/15 08:54:44;;;;;;;11.18;5.18;;;22.00;53.20;;;;;;5207686;28;20516;-57
2021/12/15 08:57:17;;;;;;;10.35;4.65;;;22.00;52.60;;;;;;5213066;28;20041;-56
2021/12/15 08:59:49;;;;;;;8.27;4.80;;;22.00;52.60;;;;;;5210469;28;20693;-57
2021/12/15 09:02:22;;;;;;;7.90;5.18;;;22.00;52.70;;;;;;5210307;28;20045;-56
2021/12/15 09:04:54;;;;;;;10.43;4.88;;;22.00;52.60;;;;;;5209409;28;20041;-53
2021/12/15 09:07:27;;;;;;;6.80;4.68;;;22.00;52.60;;;;;;5212436;28;20049;-54
2021/12/15 09:09:59;;;;;;;7.15;4.50;;;22.00;52.50;;;;;;5208774;28;20059;-57
2021/12/15 09:12:32;;;;;;;10.65;4.97;;;22.00;52.50;;;;;;5211607;28;20125;-54
2021/12/15 09:15:05;;;;;;;6.72;4.35;;;22.00;52.50;;;;;;5213148;28;20516;-56
2021/12/15 09:17:38;;;;;;;9.05;5.00;;;22.00;52.60;;;;;;5211787;28;20477;-53
2021/12/15 09:20:18;;;;;;;7.43;5.10;;;22.00;52.60;;;;;;5191244;28;20060;-55
2021/12/15 09:22:50;;;;;;;9.07;4.47;;;22.00;52.50;;;;;;5209389;28;20404;-56
2021/12/15 09:25:24;;;;;;;9.50;4.75;;;22.00;52.50;;;;;;5212608;28;20413;-56
2021/12/15 09:27:59;;;;;;;7.63;4.28;;;22.00;52.50;;;;;;5210701;28;20270;-56
2021/12/15 09:30:38;;;;;;;5.78;4.35;;;22.00;52.50;;;;;;5212971;28;20045;-54
2021/12/15 09:33:12;;;;;;;7.80;4.88;;;22.00;52.50;;;;;;5209137;28;20500;-58
2021/12/15 09:35:45;;;;;;;9.68;4.55;;;22.00;52.50;;;;;;5204101;28;20520;-57
2021/12/15 09:38:19;;;;;;;6.65;4.53;;;22.00;52.50;;;;;;5203246;28;20067;-55
2021/12/15 09:40:55;;;;;;;6.82;4.20;;;22.00;52.50;;;;;;5200097;28;20056;-57
2021/12/15 09:43:30;;;;;;;5.63;3.90;;;22.00;52.50;;;;;;5210209;28;20044;-57
2021/12/15 09:46:14;;;;;;;6.28;4.40;;;22.00;52.50;;;;;;5209599;28;20127;-58
2021/12/15 09:57:30;;;;;;;6.55;4.63;;;22.00;52.50;;;;;;5207033;28;20131;-57
2021/12/15 10:03:01;;;;;;;6.88;4.10;;;22.00;52.40;;;;;;5196820;28;20049;-55
2021/12/15 10:05:50;;;;;;;7.07;4.10;;;22.00;52.40;;;;;;5184421;28;20052;-56
2021/12/15 10:19:43;;;;;;;6.82;4.40;;;22.00;52.40;;;;;;5143523;28;20049;-57
2021/12/15 10:22:44;;;;;;;5.70;3.83;;;22.00;52.40;;;;;;5189051;28;20051;-56
2021/12/15 10:25:27;;;;;;;5.90;3.85;;;22.00;52.20;;;;;;5162101;28;20419;-56
2021/12/15 10:28:13;;;;;;;7.27;4.10;;;22.00;52.20;;;;;;5180694;28;20053;-57
2021/12/15 10:30:54;;;;;;;7.70;4.03;;;22.00;52.20;;;;;;5170669;28;20067;-57
2021/12/15 10:33:42;;;;;;;5.15;3.83;;;22.00;52.20;;;;;;5203631;28;20056;-57
2021/12/15 10:36:22;;;;;;;5.68;4.00;;;22.00;52.20;;;;;;5203822;28;20057;-56
2021/12/15 10:38:57;;;;;;;6.00;3.90;;;22.00;52.20;;;;;;5202444;28;20219;-58
2021/12/15 10:41:33;;;;;;;6.18;3.85;;;22.00;52.20;;;;;;5216412;28;20041;-57
2021/12/15 10:44:06;;;;;;;7.10;3.75;;;22.00;52.20;;;;;;5189519;28;20052;-56
2021/12/15 10:46:49;;;;;;;6.15;3.67;;;22.00;52.20;;;;;;5208714;28;20662;-58
2021/12/15 10:49:32;;;;;;;5.90;3.87;;;22.00;52.10;;;;;;5203687;28;21174;-57
2021/12/15 10:52:08;;;;;;;6.60;3.87;;;22.00;52.10;;;;;;5205782;28;20291;-58
2021/12/15 10:54:56;;;;;;;7.38;3.70;;;22.00;52.10;;;;;;5181063;28;20290;-58
2021/12/15 10:57:37;;;;;;;7.90;4.32;;;22.00;52.10;;;;;;5202739;28;20048;-57
2021/12/15 11:00:14;;;;;;;4.47;3.72;;;22.00;52.10;;;;;;5193861;28;20048;-58
2021/12/15 11:02:47;;;;;;;5.05;3.40;;;22.00;52.10;;;;;;5204050;28;20037;-58
2021/12/15 11:05:21;;;;;;;;;;;22.00;52.20;;;;;;5197411;28;20052;-58
2021/12/15 11:07:57;;;;;;;6.55;3.85;;;21.90;52.10;;;;;;5201391;28;19928;-56
2021/12/15 11:10:34;;;;;;;6.47;3.50;;;22.00;52.20;;;;;;5197915;28;22820;-59
2021/12/15 11:13:13;;;;;;;5.00;3.53;;;22.00;52.40;;;;;;5173736;28;20500;-58
2021/12/15 11:15:48;;;;;;;5.32;3.30;;;22.00;52.20;;;;;;5195577;28;20041;-58
2021/12/15 11:18:31;;;;;;;4.18;3.40;;;22.00;52.20;;;;;;5201625;28;20049;-56
2021/12/15 11:21:08;;;;;;;8.70;3.97;;;22.00;52.80;;;;;;5198299;28;20039;-58
2021/12/15 11:23:45;;;;;;;6.30;3.38;;;22.00;52.20;;;;;;5178229;28;20073;-55
2021/12/15 11:26:18;;;;;;;7.45;3.97;;;22.00;52.20;;;;;;5205143;28;20040;-57
2021/12/15 11:28:51;;;;;;;5.82;3.20;;;22.00;52.20;;;;;;5202089;28;20064;-52
2021/12/15 11:31:28;;;;;;;5.88;3.25;;;22.00;52.20;;;;;;5196466;28;20053;-56
2021/12/15 11:34:07;;;;;;;4.22;3.15;;;22.00;52.10;;;;;;5199070;28;20063;-58
2021/12/15 11:36:44;;;;;;;4.80;2.92;;;22.00;52.10;;;;;;5201296;28;20044;-58
2021/12/15 11:39:20;;;;;;;5.75;3.28;;;22.00;52.10;;;;;;5193886;28;20041;-57
2021/12/15 11:41:54;;;;;;;5.40;3.13;;;22.00;52.20;;;;;;5202411;28;20541;-56
2021/12/15 11:44:28;;;;;;;4.63;3.20;;;22.00;52.20;;;;;;5186554;28;20537;-58
2021/12/15 11:47:03;;;;;;;3.67;2.70;;;22.00;52.20;;;;;;5207597;28;20444;-59
2021/12/15 11:49:39;;;;;;;4.15;2.55;;;22.00;52.10;;;;;;5186649;28;20429;-58
2021/12/15 11:52:14;;;;;;;4.53;3.00;;;22.00;52.10;;;;;;5211669;28;20059;-57
2021/12/15 11:54:50;;;;;;;4.65;3.20;;;22.00;52.10;;;;;;5192337;28;20049;-56
2021/12/15 11:57:28;;;;;;;6.25;2.90;;;22.00;52.10;;;;;;5165008;28;20040;-57
2021/12/15 12:00:12;;;;;;;3.90;2.85;;;22.00;52.10;;;;;;5174078;28;20049;-57
2021/12/15 12:02:48;;;;;;;3.95;2.60;;;22.10;52.10;;;;;;5190971;28;21116;-57
2021/12/15 12:05:26;;;;;;;5.05;3.03;;;22.00;52.00;;;;;;5185429;28;20048;-57
2021/12/15 12:08:01;;;;;;;5.05;3.42;;;22.00;52.00;;;;;;5191922;28;20045;-56
2021/12/15 12:10:48;;;;;;;3.85;2.80;;;22.00;52.00;;;;;;5195707;28;20056;-57
2021/12/15 12:13:26;;;;;;;5.18;2.72;;;22.10;52.00;;;;;;5145827;28;20057;-57
2021/12/15 12:16:03;;;;;;;7.18;2.63;;;22.00;52.00;;;;;;5193655;28;20056;-57
2021/12/15 12:18:35;;;;;;;4.90;3.05;;;22.10;52.00;;;;;;5165755;28;20064;-55
2021/12/15 12:21:09;;;;;;;4.37;3.10;;;22.00;52.00;;;;;;5144546;28;20056;-58
2021/12/15 12:23:45;;;;;;;4.85;2.67;;;22.10;52.00;;;;;;5174430;28;20045;-56
2021/12/15 12:26:26;;;;;;;6.50;2.72;;;22.00;51.90;;;;;;5175790;28;20044;-56
2021/12/15 12:29:01;;;;;;;4.15;2.75;;;22.00;51.90;;;;;;5168886;28;20053;-57
2021/12/15 12:31:33;;;;;;;5.18;2.50;;;22.10;51.90;;;;;;5172574;28;20424;-57
2021/12/15 12:34:06;;;;;;;4.43;2.80;;;22.00;51.90;;;;;;5173568;28;20053;-58
2021/12/15 12:36:38;;;;;;;3.20;2.20;;;22.10;52.00;;;;;;5177805;28;20044;-53
2021/12/15 12:39:13;;;;;;;2.50;2.25;;;22.00;51.90;;;;;;5159516;28;20045;-59
2021/12/15 12:41:49;;;;;;;3.95;2.45;;;22.00;51.90;;;;;;5175047;28;20049;-57
2021/12/15 12:44:31;;;;;;;5.13;2.55;;;22.00;51.90;;;;;;5173751;28;20048;-56
2021/12/15 12:47:18;;;;;;;3.75;2.33;;;22.00;51.90;;;;;;5178720;28;20049;-58
2021/12/15 13:01:19;;;;;;;2.85;2.13;;;22.00;51.90;;;;;;5170063;28;20044;-56
2021/12/15 13:03:56;;;;;;;8.27;2.28;;;22.00;52.00;;;;;;5181018;28;20455;-57
2021/12/15 13:06:37;;;;;;;4.95;2.13;;;22.00;52.70;;;;;;5187108;28;20693;-59
2021/12/15 13:09:16;;;;;;;5.25;2.20;;;22.10;53.20;;;;;;5179853;28;20198;-59
2021/12/15 13:11:50;;;;;;;3.83;2.13;;;22.00;53.00;;;;;;5192001;28;20052;-55
2021/12/15 13:14:36;;;;;;;6.07;2.25;;;22.10;53.40;;;;;;5177194;28;20059;-59
2021/12/15 13:17:23;;;;;;;6.18;1.90;;;22.10;53.40;;;;;;5195410;28;20044;-58
2021/12/15 13:19:58;;;;;;;4.00;2.20;;;22.10;53.30;;;;;;5169696;28;20064;-58
2021/12/15 13:31:20;;;;;;;6.60;2.35;;;22.10;54.30;;;;;;5195187;28;20682;-58
2021/12/15 13:33:59;;;;;;;6.68;2.05;;;22.10;54.10;;;;;;5171648;28;20439;-58
2021/12/15 13:37:06;;;;;;;4.68;1.98;;;22.10;52.70;;;;;;5221936;27;21819;-59
2021/12/15 13:39:46;;;;;;;6.30;2.15;;;22.10;53.70;;;;;;5228867;28;20045;-59
2021/12/15 13:42:51;;;;;;;3.53;1.90;;;22.10;53.70;;;;;;5225929;28;20381;-59
2021/12/15 13:45:26;;;;;;;4.03;2.03;;;22.10;53.60;;;;;;5203357;28;20045;-57
2021/12/15 13:47:59;;;;;;;10.02;2.58;;;22.10;53.50;;;;;;5189737;28;20290;-57
2021/12/15 13:50:32;;;;;;;5.60;2.17;;;22.10;54.00;;;;;;5196212;28;20040;-59
2021/12/15 13:53:05;;;;;;;16.75;2.80;;;22.10;54.00;;;;;;5196651;28;20045;-60
2021/12/15 13:55:39;;;;;;;6.50;2.70;;;22.20;53.90;;;;;;5208516;28;20041;-60
2021/12/15 13:58:20;;;;;;;3.63;2.28;;;22.20;53.50;;;;;;5212078;28;20060;-58
2021/12/15 14:01:01;;;;;;;7.88;2.35;;;22.20;53.60;;;;;;5215528;28;20760;-59
2021/12/15 14:03:43;;;;;;;5.82;2.25;;;22.30;53.60;;;;;;5206172;28;21861;-59
2021/12/15 14:06:18;;;;;;;3.65;2.33;;;22.30;53.40;;;;;;5210818;28;20064;-59
2021/12/15 14:08:55;;;;;;;6.75;1.90;;;22.30;53.70;;;;;;5215216;28;20683;-58
2021/12/15 14:11:34;;;;;;;5.45;2.17;;;22.30;53.40;;;;;;5210426;28;20068;-59
2021/12/15 14:14:24;;;;;;;10.82;2.42;;;22.30;53.30;;;;;;5212301;28;20300;-59
2021/12/15 14:16:57;;;;;;;11.40;2.78;;;22.40;53.60;;;;;;5212001;28;20040;-60
2021/12/15 14:19:36;;;;;;;11.60;2.47;;;22.40;53.70;;;;;;5213993;28;20055;-59
2021/12/15 14:22:10;;;;;;;7.88;2.10;;;22.40;53.30;;;;;;5204522;28;20075;-58
2021/12/15 14:24:42;;;;;;;9.07;2.15;;;22.40;53.20;;;;;;5208438;28;20071;-60
2021/12/15 14:27:15;;;;;;;4.70;2.13;;;22.40;53.40;;;;;;5210910;28;20052;-57
2021/12/15 14:29:47;;;;;;;4.85;2.47;;;22.40;53.40;;;;;;5192330;28;20395;-60
2021/12/15 14:32:23;;;;;;;5.43;1.88;;;22.50;53.50;;;;;;5197735;28;21248;-57
2021/12/15 14:34:56;;;;;;;4.10;1.70;;;22.50;53.40;;;;;;5181348;28;20408;-58
2021/12/15 14:37:28;;;;;;;8.27;1.90;;;22.50;53.30;;;;;;5189090;28;20040;-58
2021/12/15 14:40:01;;;;;;;4.10;1.70;;;22.50;53.30;;;;;;4470607;28;10000336;-60
2021/12/15 14:42:34;;;;;;;4.53;2.00;;;22.50;53.30;;;;;;5158120;28;20084;-60
2021/12/15 14:45:08;;;;;;;6.15;1.83;;;22.50;53.00;;;;;;5173550;28;20045;-58
2021/12/15 14:47:43;;;;;;;1.95;1.73;;;22.50;52.90;;;;;;5167273;28;20045;-56
2021/12/15 14:50:18;;;;;;;4.40;2.00;;;22.50;52.70;;;;;;5148125;28;20049;-59
2021/12/15 14:52:53;;;;;;;2.38;1.63;;;22.50;52.60;;;;;;5168592;28;20777;-56
2021/12/15 14:55:30;;;;;;;5.10;1.92;;;22.50;52.50;;;;;;5170869;28;20045;-58
2021/12/15 14:58:26;;;;;;;3.05;1.90;;;22.50;52.40;;;;;;5170337;28;20048;-58